Date,TemperatureHighF,TemperatureAvgF,TemperatureLowF,DewpointHighF,DewpointAvgF,DewpointLowF,HumidityHigh,HumidityAvg,HumidityLow,PressureMaxIn,PressureMinIn,WindSpeedMaxMPH,WindSpeedAvgMPH,GustSpeedMaxMPH,PrecipitationSumIn
2013-10-1,84.3,79.7,77.4,75.0,72.8,71.0,85,79,71,30.02,29.93,15,8,19,0.00
2013-10-2,84.6,79.8,77.6,74.0,72.4,71.0,83,78,69,30.00,29.91,13,8,19,0.00
2013-10-3,84.5,79.6,77.6,74.0,72.2,70.0,83,78,67,29.99,29.91,15,8,19,0.00
2013-10-4,83.3,79.2,76.6,75.0,72.2,71.0,85,79,69,30.01,29.94,13,7,19,0.00
2013-10-5,81.8,78.1,73.3,74.0,71.6,70.0,91,80,72,30.02,29.94,13,6,21,0.06
2013-10-6,81.8,78.5,76.6,74.0,71.9,70.0,85,80,74,30.01,29.93,13,6,15,0.00
2013-10-7,83.8,79.1,76.1,74.0,72.5,71.0,89,80,70,30.06,29.96,14,8,18,0.00
2013-10-8,82.7,78.6,75.9,74.0,72.0,70.0,86,80,72,30.07,30.00,16,8,21,0.01
2013-10-9,83.6,79.1,77.0,73.0,71.4,70.0,83,77,69,30.06,29.96,16,8,18,0.00
2013-10-10,83.1,78.9,76.0,74.0,71.9,70.0,87,79,70,30.01,29.93,11,6,14,0.00
2013-10-11,85.4,79.1,74.2,76.0,74.1,72.0,96,85,72,30.02,29.92,10,3,12,0.11
2013-10-12,83.7,78.2,74.0,77.0,74.3,73.0,96,88,75,30.01,29.93,6,2,8,0.00
2013-10-13,84.6,77.7,74.1,76.0,73.7,71.0,95,87,74,29.99,29.91,6,2,9,0.10
2013-10-14,84.3,78.4,74.7,75.0,73.2,72.0,93,84,72,29.97,29.89,7,2,9,0.00
2013-10-15,84.8,78.2,74.3,75.0,72.6,71.0,90,83,71,29.98,29.90,9,3,12,0.00
2013-10-16,83.9,78.6,75.8,73.0,71.6,70.0,85,79,67,30.00,29.90,11,5,13,0.00
2013-10-17,84.4,78.5,75.3,75.0,72.4,71.0,87,81,70,29.99,29.92,7,3,11,0.00
2013-10-18,82.9,77.5,73.9,75.0,72.0,69.0,90,83,72,29.96,29.86,7,3,11,0.02
2013-10-19,83.4,76.3,72.4,74.0,70.1,67.0,91,81,69,29.89,29.82,5,2,9,0.02
2013-10-20,81.6,76.1,73.5,72.0,70.2,68.0,88,82,70,29.95,29.85,9,2,10,0.01
2013-10-21,81.4,76.3,72.9,71.0,68.2,67.0,83,76,66,29.98,29.89,8,3,11,0.00
2013-10-22,82.0,77.1,73.9,74.0,71.0,68.0,90,81,74,29.99,29.93,8,4,13,0.00
2013-10-23,83.6,78.5,75.9,73.0,71.2,70.0,84,78,67,30.01,29.93,7,3,10,0.00
2013-10-24,83.6,79.1,76.1,74.0,71.5,70.0,85,78,67,29.99,29.90,10,4,11,0.00
2013-10-25,83.8,78.8,75.1,74.0,72.5,70.0,87,81,68,30.00,29.92,13,5,14,0.01
2013-10-26,84.6,79.1,75.4,76.0,73.9,71.0,91,84,73,30.02,29.92,10,2,15,0.00
2013-10-27,84.3,77.4,74.3,77.0,73.9,71.0,95,89,78,30.03,29.94,8,1,11,0.35
2013-10-28,83.3,78.3,74.7,77.0,74.1,72.0,95,87,78,30.05,29.94,10,3,13,0.01
2013-10-29,82.9,78.6,76.8,73.0,71.7,70.0,84,79,69,30.07,29.97,10,6,14,0.00
2013-10-30,82.8,78.4,76.0,74.0,71.6,69.0,86,79,74,30.09,29.99,8,4,12,0.00
2013-10-31,83.2,78.9,76.1,75.0,72.8,71.0,90,81,73,30.10,30.02,11,5,12,0.00